Flight Track Log - Related Links

Times and Time Zones

All times are in EDT time to prevent confusion due to time zone crossing. See the UPS1337 flight status page for this flight to view local times or setup timezone preferences in your user account.

Time Position Orientation Groundspeed Altitude Reporting Facility
EDT Latitude Longitude Course Direction KTS MPH feet Rate Location/Type
Wed 09:43:06 PM 27.9167 -82.6833 10° North 158 182 900  Level Tampa TRACON
Wed 09:44:24 PM 28.0000 -82.6667 10° North 247 284 3,800 2,739 Climbing Tampa TRACON
Wed 09:50:11 PM 28.5429 -82.6017 North 421 484 20,300 2,798 Climbing FlightAware ADS-B
Wed 09:50:50 PM 28.6201 -82.5991 North 432 497 21,800 2,093 Climbing FlightAware ADS-B
Wed 09:52:20 PM 28.8059 -82.5932 North 459 528 24,800 1,836 Climbing FlightAware ADS-B
Wed 09:53:04 PM 28.9010 -82.5910 North 471 542 25,900 1,705 Climbing FlightAware ADS-B
Wed 09:53:48 PM 28.9994 -82.5885 North 476 548 27,300 2,163 Climbing FlightAware ADS-B
Wed 09:54:30 PM 29.0911 -82.5861 North 471 542 29,000 2,466 Climbing FlightAware ADS-B
Wed 09:55:01 PM 29.1592 -82.5845 North 471 542 30,300 1,879 Climbing FlightAware ADS-B
Wed 09:56:09 PM 29.3076 -82.5812 North 470 541 32,100 1,581 Climbing FlightAware ADS-B
Wed 09:57:29 PM 29.4804 -82.5775 North 467 537 34,200 1,514 Climbing FlightAware ADS-B
Wed 09:58:00 PM 29.5468 -82.5759 North 467 537 34,900 593 Climbing FlightAware ADS-B
Wed 09:58:50 PM 29.6561 -82.5733 North 470 541 35,000 61 Climbing FlightAware ADS-B
Wed 09:59:39 PM 29.7585 -82.5707 North 467 537 35,000  Level FlightAware ADS-B
Wed 10:00:09 PM 29.8225 -82.5692 North 464 534 35,000  Level FlightAware ADS-B
Wed 10:00:39 PM 29.8911 -82.5676 North 460 529 35,000  Level FlightAware ADS-B
Wed 10:01:20 PM 29.9795 -82.5656 North 460 529 35,000  Level FlightAware ADS-B
Wed 10:02:00 PM 30.0639 -82.5631 North 459 528 35,000  Level FlightAware ADS-B
Wed 10:02:30 PM 30.1285 -82.5615 North 458 527 35,000  Level FlightAware ADS-B
Wed 10:03:00 PM 30.1921 -82.5601 North 459 528 35,000  Level FlightAware ADS-B
Wed 10:03:32 PM 30.2602 -82.5584 North 457 526 35,000  Level FlightAware ADS-B
Wed 10:04:10 PM 30.3356 -82.5565 North 456 525 35,000  Level FlightAware ADS-B
Wed 10:05:20 PM 30.4882 -82.5529 North 454 522 35,000  Level FlightAware ADS-B
Wed 10:05:54 PM 30.5554 -82.5509 North 454 522 35,000  Level FlightAware ADS-B
Wed 10:06:48 PM 30.6658 -82.5459 North 454 522 35,000  Level FlightAware ADS-B
Wed 10:07:39 PM 30.7714 -82.5444 North 457 526 35,000  Level Jacksonville Center
Wed 10:08:39 PM 30.8967 -82.5392 North 457 526 35,000 -50 Level Jacksonville Center
Wed 10:09:39 PM 31.0239 -82.5339 North 451 519 34,900 -50 Descending Jacksonville Center
Wed 10:10:39 PM 31.1431 -82.5456 355° North 444 511 34,900 32 Level Jacksonville Center
Wed 10:12:44 PM 31.3731 -82.6089 347° North 421 484 35,000 32 Climbing Atlanta Center
Wed 10:13:44 PM 31.4903 -82.6436 346° North 421 484 35,000  Level Atlanta Center
Wed 10:14:44 PM 31.6075 -82.6708 349° North 421 484 35,000  Level Atlanta Center
Wed 10:15:44 PM 31.7247 -82.7058 346° North 421 484 35,000  Level Atlanta Center
Wed 10:16:44 PM 31.8378 -82.7358 347° North 426 490 35,000  Level Atlanta Center
Wed 10:17:44 PM 31.9550 -82.7661 348° North 426 490 35,000  Level Atlanta Center
Wed 10:18:44 PM 32.0700 -82.7986 347° North 426 490 35,000  Level Atlanta Center
Wed 10:19:44 PM 32.1853 -82.8314 346° North 426 490 35,000  Level Atlanta Center
Wed 10:20:44 PM 32.3003 -82.8617 347° North 421 484 35,000  Level Atlanta Center
Wed 10:21:44 PM 32.4175 -82.8947 347° North 421 484 35,000  Level Atlanta Center
Wed 10:22:44 PM 32.5389 -82.9300 346° North 416 479 35,000  Level Atlanta Center
Wed 10:23:44 PM 32.6561 -82.9606 348° North 416 479 35,000  Level Atlanta Center
Wed 10:24:44 PM 32.7733 -82.9939 347° North 416 479 35,000  Level Atlanta Center
Wed 10:25:44 PM 32.8800 -83.0247 346° North 407 468 35,000  Level Atlanta Center
Wed 10:26:44 PM 32.9950 -83.0556 347° North 407 468 35,000  Level Atlanta Center
Wed 10:27:44 PM 33.1081 -83.0914 345° North 418 481 35,000  Level Atlanta Center
Wed 10:28:44 PM 33.2253 -83.1200 348° North 418 481 35,000  Level Atlanta Center
Wed 10:29:44 PM 33.3361 -83.1536 346° North 411 473 35,000  Level Atlanta Center
Wed 10:30:44 PM 33.4511 -83.1847 347° North 416 479 35,000  Level Atlanta Center
Wed 10:31:44 PM 33.5661 -83.2161 347° North 416 479 35,000  Level Atlanta Center
Wed 10:32:44 PM 33.6811 -83.2475 347° North 416 479 35,000  Level Atlanta Center
Wed 10:38:31 PM 34.3205 -83.4290 344° North 402 463 35,000  Level FlightAware ADS-B (KDZJ)
Wed 10:39:12 PM 34.3912 -83.4554 342° North 393 452 35,000  Level FlightAware ADS-B (KDZJ)
Wed 10:39:52 PM 34.4690 -83.4844 343° North 401 461 35,000  Level FlightAware ADS-B (KDZJ)
Wed 10:40:32 PM 34.5297 -83.5067 343° North 402 463 35,000  Level FlightAware ADS-B (KDZJ)
Wed 10:41:12 PM 34.6078 -83.5353 343° North 386 444 35,000  Level FlightAware ADS-B (KDZJ)
Wed 10:41:52 PM 34.6808 -83.5625 343° North 391 450 35,000  Level FlightAware ADS-B (KDZJ)
Wed 10:42:32 PM 34.7407 -83.5845 343° North 375 432 35,000  Level FlightAware ADS-B (KDZJ)
Wed 10:43:12 PM 34.8170 -83.6132 343° North 388 447 35,000  Level FlightAware ADS-B (KDZJ)
Wed 10:43:52 PM 34.8835 -83.6374 343° North 384 442 35,000  Level FlightAware ADS-B (KDZJ)
Wed 10:44:32 PM 34.9388 -83.6580 343° North 370 426 35,000  Level FlightAware ADS-B (KDZJ)
Wed 10:45:13 PM 35.0235 -83.6901 343° North 371 427 35,000  Level FlightAware ADS-B (KDZJ)
Wed 10:45:53 PM 35.0896 -83.7146 343° North 372 428 35,000  Level FlightAware ADS-B (KDZJ)
Wed 10:46:33 PM 35.1576 -83.7406 342° North 373 429 35,000  Level FlightAware ADS-B (KDZJ)
Wed 10:47:13 PM 35.2243 -83.7656 343° North 387 445 35,000  Level FlightAware ADS-B (KDZJ)
Wed 10:47:53 PM 35.2869 -83.7888 343° North 389 448 35,000  Level FlightAware ADS-B (KDZJ)
Wed 10:48:33 PM 35.3547 -83.8149 343° North 390 449 35,000  Level FlightAware ADS-B (KDZJ)
Wed 10:49:13 PM 35.4300 -83.8429 343° North 389 448 35,000  Level FlightAware ADS-B (KDZJ)
Wed 10:49:53 PM 35.4971 -83.8683 343° North 389 448 35,000 -250 Level FlightAware ADS-B (KDZJ)
Wed 10:50:25 PM 35.5415 -83.8855 343° North 389 448 34,700 -889 Descending FlightAware ADS-B (KDZJ)
Wed 10:51:41 PM 35.6817 -83.9389 343° North 391 450 33,400 -1,007 Descending Indianapolis Center
Wed 10:52:42 PM 35.7883 -83.9789 343° North 397 457 32,400 -836 Descending Indianapolis Center
Wed 10:53:43 PM 35.8961 -84.0203 343° North 402 463 31,700 -836 Descending Indianapolis Center
Wed 10:54:44 PM 36.0019 -84.0644 341° North 400 460 30,700 -554 Descending Atlanta Center
Wed 10:56:47 PM 36.2172 -84.1431 344° North 405 466 30,000 -228 Descending Indianapolis Center
Wed 10:57:48 PM 36.3222 -84.1836 343° North 403 464 30,000  Level Indianapolis Center
Wed 10:58:50 PM 36.4444 -84.2325 342° North 392 451 30,000  Level Indianapolis Center
Wed 10:59:51 PM 36.5336 -84.2694 342° North 355 409 30,000 -934 Level Indianapolis Center
Wed 11:00:52 PM 36.6167 -84.3203 334° Northwest 337 388 28,100 -1,869 Descending Indianapolis Center
Wed 11:01:53 PM 36.6994 -84.3706 334° Northwest 334 384 26,200 -1,902 Descending Indianapolis Center
Wed 11:02:55 PM 36.7811 -84.4186 335° Northwest 326 375 24,200 -1,756 Descending Indianapolis Center
Wed 11:03:56 PM 36.8586 -84.4661 334° Northwest 316 364 22,600 -1,475 Descending Indianapolis Center
Wed 11:04:57 PM 36.9317 -84.5103 334° Northwest 307 353 21,200 -1,415 Descending Indianapolis Center
Wed 11:05:59 PM 37.0067 -84.5553 334° Northwest 304 350 19,700 -1,463 Descending Indianapolis Center
Wed 11:07:00 PM 37.0844 -84.6025 334° Northwest 302 348 18,200 -1,475 Descending Indianapolis Center
Wed 11:08:01 PM 37.1697 -84.6547 334° Northwest 294 338 16,700 -1,463 Descending Indianapolis Center
Wed 11:09:03 PM 37.2408 -84.6978 334° Northwest 287 330 15,200 -1,463 Descending Indianapolis Center
Wed 11:10:04 PM 37.3117 -84.7417 334° Northwest 286 329 13,700 -1,426 Descending Indianapolis Center
Wed 11:11:05 PM 37.3811 -84.7831 335° Northwest 280 322 12,300 -1,230 Descending Indianapolis Center
Wed 11:12:06 PM 37.4478 -84.8256 333° Northwest 273 314 11,200 -1,122 Descending Indianapolis Center
Wed 11:13:08 PM 37.5147 -84.8656 335° Northwest 269 310 10,000 -1,220 Descending Indianapolis Center
Wed 11:14:09 PM 37.5831 -84.9072 334° Northwest 269 310 8,700 -984 Descending Indianapolis Center
Wed 11:15:10 PM 37.6514 -84.9511 333° Northwest 271 312 8,000 -344 Descending Indianapolis Center
Wed 11:16:11 PM 37.7008 -85.0164 314° West 265 305 8,000  Level Indianapolis Center
Wed 11:17:13 PM 37.7494 -85.0836 312° West 262 302 8,000 -683 Level Indianapolis Center
Wed 11:18:14 PM 37.7836 -85.1800 294° West 261 300 6,600 -462 Descending Indianapolis Center
Wed 11:23:56 PM 37.8640 -85.6292 321° Northwest 194 223 4,900 -275 Descending FlightAware ADS-B (EPWR / WRO)
Wed 11:24:25 PM 37.8931 -85.6512 340° North 183 211 4,900  Level FlightAware ADS-B (EPWR / WRO)
Wed 11:24:42 PM 37.9071 -85.6569 344° North 181 208 4,900 -261 Level FlightAware ADS-B (EPWR / WRO)
Wed 11:25:11 PM 37.9278 -85.6640 346° North 186 214 4,700 -381 Descending FlightAware ADS-B (EPWR / WRO)
Wed 11:25:45 PM 37.9500 -85.6667 346° North 185 213 4,500 -500 Descending Louisville TRACON
Wed 11:26:23 PM 37.9811 -85.6808 340° North 188 216 4,100 -909 Descending Indianapolis Center
Wed 11:27:24 PM 38.0331 -85.6983 345° North 189 217 3,000 -836 Descending Indianapolis Center
Wed 11:28:25 PM 38.0928 -85.7175 346° North 189 217 2,400 -590 Descending Indianapolis Center
Wed 11:30:00 PM 38.1667 -85.7333 345° North  Level FlightAware Approximate
Wed 11:37:00 PM 38.1741 -85.7365 345° North  Level Estimated
Wed 11:38:00 PM 38.1741 -85.7365 186° South  Level Estimated

Login

Don't have an account? Register now (free) for customized features, flight alerts, and more!